Time;durP1;ratioP1;P1;durP2;ratioP2;P2;SDS_P1;SDS_P2;PMS_P1;PMS_P2;Temp;Humidity;BMP_temperature;BMP_pressure;BME280_temperature;BME280_humidity;BME280_pressure;Samples;Min_cycle;Max_cycle;Signal;HPM_P1;HPM_P2
2022/10/27 04:04:57;;;;;;;3.35;2.25;;;9.60;99.90;;;;;;5435602;22;20286;-72
2022/10/27 04:07:23;;;;;;;3.10;2.90;;;9.60;99.90;;;;;;4993736;28;20179;-71
2022/10/27 04:09:48;;;;;;;2.53;2.33;;;9.50;99.90;;;;;;4993792;28;20673;-72
2022/10/27 04:12:14;;;;;;;3.03;2.77;;;9.50;99.90;;;;;;4992819;28;20194;-72
2022/10/27 04:14:40;;;;;;;2.70;2.50;;;9.50;99.90;;;;;;4991502;28;20243;-72
2022/10/27 04:17:05;;;;;;;2.00;1.90;;;9.50;99.90;;;;;;4993444;28;20258;-72
2022/10/27 04:19:31;;;;;;;2.90;2.70;;;9.50;99.90;;;;;;4993399;28;20174;-72
2022/10/27 04:21:56;;;;;;;2.57;2.10;;;9.50;99.90;;;;;;4993228;28;20182;-71
2022/10/27 04:24:22;;;;;;;4.37;2.80;;;9.50;99.90;;;;;;4993084;28;20202;-72
2022/10/27 04:26:48;;;;;;;3.23;3.00;;;9.50;99.90;;;;;;4980305;28;20682;-72
2022/10/27 04:29:13;;;;;;;2.53;2.40;;;9.50;99.90;;;;;;4993331;28;20179;-72
2022/10/27 04:31:39;;;;;;;3.30;2.57;;;9.50;99.90;;;;;;4992250;28;20202;-72
2022/10/27 04:34:04;;;;;;;3.17;2.97;;;9.50;99.90;;;;;;4990336;28;20218;-73
2022/10/27 04:36:30;;;;;;;3.33;3.03;;;9.50;99.90;;;;;;4992961;28;20171;-69
2022/10/27 04:38:56;;;;;;;2.83;2.27;;;9.50;99.90;;;;;;4993110;28;20259;-73
2022/10/27 04:41:21;;;;;;;3.27;2.87;;;9.50;99.90;;;;;;4992936;28;20261;-73
2022/10/27 04:43:50;;;;;;;2.87;2.67;;;9.50;99.90;;;;;;4991110;28;20203;-70
2022/10/27 04:46:16;;;;;;;2.53;2.33;;;9.50;99.90;;;;;;5000148;28;20186;-71
2022/10/27 04:48:42;;;;;;;3.33;3.07;;;9.50;99.90;;;;;;4996816;28;20175;-71
2022/10/27 04:51:08;;;;;;;2.70;2.50;;;9.50;99.90;;;;;;4996322;28;20950;-71
2022/10/27 04:53:33;;;;;;;2.40;2.20;;;9.50;99.90;;;;;;4996587;28;20190;-73
2022/10/27 04:55:59;;;;;;;2.97;2.77;;;9.50;99.90;;;;;;4997264;28;20555;-71
2022/10/27 04:58:25;;;;;;;2.93;2.63;;;9.50;99.90;;;;;;4996750;28;20175;-72
2022/10/27 05:00:50;;;;;;;3.03;2.83;;;9.50;99.90;;;;;;4996549;28;20631;-73
2022/10/27 05:03:16;;;;;;;3.70;3.40;;;9.50;99.90;;;;;;4996445;28;20520;-74
2022/10/27 05:05:41;;;;;;;3.17;2.97;;;9.50;99.90;;;;;;4996521;28;20532;-72
2022/10/27 05:08:08;;;;;;;5.30;3.90;;;9.50;99.90;;;;;;4996755;28;20188;-72
2022/10/27 05:10:34;;;;;;;3.58;3.28;;;9.50;99.90;;;;;;4996753;28;20189;-71
2022/10/27 05:13:00;;;;;;;5.63;3.50;;;9.50;99.90;;;;;;4996349;28;20639;-72
2022/10/27 05:15:26;;;;;;;3.47;3.17;;;9.50;99.90;;;;;;4996920;28;20461;-72
2022/10/27 05:17:52;;;;;;;3.93;3.63;;;9.60;99.90;;;;;;4996321;28;20632;-72
2022/10/27 05:20:17;;;;;;;4.97;4.47;;;9.60;99.90;;;;;;4996647;28;20410;-71
2022/10/27 05:22:43;;;;;;;3.83;3.53;;;9.60;99.90;;;;;;4996090;28;20178;-72
2022/10/27 05:25:10;;;;;;;3.80;3.50;;;9.70;99.90;;;;;;4996589;28;20187;-72
2022/10/27 05:27:37;;;;;;;3.92;3.53;;;9.70;99.90;;;;;;4994918;28;20183;-72
2022/10/27 05:30:04;;;;;;;3.30;3.10;;;9.70;99.90;;;;;;4996715;28;20179;-71
2022/10/27 05:32:30;;;;;;;25.00;5.25;;;9.70;99.90;;;;;;4996247;28;20180;-71
2022/10/27 05:34:56;;;;;;;6.43;4.47;;;9.70;99.90;;;;;;4996319;28;20208;-71
2022/10/27 05:37:21;;;;;;;5.73;3.67;;;9.60;99.90;;;;;;4994619;28;20226;-72
2022/10/27 05:39:47;;;;;;;3.37;3.07;;;9.60;99.90;;;;;;4996092;28;20163;-71
2022/10/27 05:42:12;;;;;;;3.30;3.00;;;9.60;99.90;;;;;;4996015;28;20578;-72
2022/10/27 05:44:38;;;;;;;3.50;3.20;;;9.60;99.90;;;;;;4995727;28;20203;-71
2022/10/27 05:47:04;;;;;;;4.03;3.60;;;9.60;99.90;;;;;;4984045;28;20263;-71
2022/10/27 05:49:29;;;;;;;3.80;3.50;;;9.60;99.90;;;;;;4994548;28;20175;-71
2022/10/27 05:51:55;;;;;;;4.07;3.73;;;9.60;99.90;;;;;;4997151;28;20175;-72
2022/10/27 05:54:20;;;;;;;3.07;2.83;;;9.60;99.90;;;;;;4996008;28;20606;-72
2022/10/27 05:56:49;;;;;;;3.77;3.47;;;9.50;99.90;;;;;;4993494;28;20167;-71
2022/10/27 05:59:14;;;;;;;4.07;3.75;;;9.50;99.90;;;;;;4996298;28;20182;-72
2022/10/27 06:01:40;;;;;;;4.40;4.00;;;9.50;99.90;;;;;;4995502;28;20163;-71
2022/10/27 06:04:05;;;;;;;6.63;4.60;;;9.50;99.90;;;;;;4995511;28;20534;-71
2022/10/27 06:06:31;;;;;;;4.10;3.70;;;9.50;99.90;;;;;;4995384;28;20658;-71
2022/10/27 06:08:57;;;;;;;4.97;3.60;;;9.50;99.90;;;;;;4995708;28;20674;-72
2022/10/27 06:11:23;;;;;;;4.70;4.30;;;9.50;99.90;;;;;;4994352;28;20175;-72
2022/10/27 06:13:50;;;;;;;4.17;3.63;;;9.50;99.90;;;;;;4994000;28;20670;-72
2022/10/27 06:16:16;;;;;;;3.70;3.40;;;9.50;99.90;;;;;;4995748;28;20230;-71
2022/10/27 06:18:41;;;;;;;6.60;4.13;;;9.50;99.90;;;;;;4993789;28;20171;-71
2022/10/27 06:21:07;;;;;;;3.60;3.30;;;9.50;99.90;;;;;;4993197;28;20178;-74
2022/10/27 06:23:32;;;;;;;5.53;3.60;;;9.50;99.90;;;;;;4974440;28;20227;-72
2022/10/27 06:25:58;;;;;;;4.17;3.20;;;9.50;99.90;;;;;;4974330;28;20171;-73
2022/10/27 06:28:24;;;;;;;4.37;3.97;;;9.60;99.90;;;;;;4992450;28;20187;-73
2022/10/27 06:30:49;;;;;;;4.93;4.30;;;9.60;99.90;;;;;;4995250;28;20183;-73
2022/10/27 06:33:15;;;;;;;10.57;7.20;;;9.70;99.90;;;;;;4994933;28;20172;-73
2022/10/27 06:35:41;;;;;;;7.07;5.83;;;9.80;99.90;;;;;;4994781;28;20203;-74
2022/10/27 06:38:08;;;;;;;4.50;4.10;;;9.80;99.90;;;;;;4995128;28;20516;-73
2022/10/27 06:40:33;;;;;;;4.40;4.00;;;9.90;99.90;;;;;;4994911;28;20172;-73
2022/10/27 06:42:59;;;;;;;5.53;4.13;;;10.00;99.90;;;;;;4994644;28;20176;-73
2022/10/27 06:45:24;;;;;;;5.43;4.93;;;10.00;99.90;;;;;;4995209;28;20647;-73
2022/10/27 06:47:58;;;;;;;4.70;4.27;;;10.10;99.90;;;;;;4994959;28;20175;-73
2022/10/27 06:50:24;;;;;;;5.07;3.67;;;10.10;99.90;;;;;;4994831;28;20604;-74
2022/10/27 06:52:50;;;;;;;4.20;3.80;;;10.10;99.90;;;;;;4994536;28;20175;-72
2022/10/27 06:55:16;;;;;;;8.55;4.55;;;10.20;99.90;;;;;;4994400;28;20440;-73
2022/10/27 06:57:42;;;;;;;5.23;3.77;;;10.20;99.90;;;;;;4994608;28;20330;-74
2022/10/27 07:00:09;;;;;;;5.70;5.10;;;10.30;99.90;;;;;;4994682;28;20410;-73
2022/10/27 07:02:35;;;;;;;6.35;5.35;;;10.40;99.90;;;;;;4994094;28;20431;-73
2022/10/27 07:05:01;;;;;;;6.17;5.27;;;10.50;99.90;;;;;;4994194;28;20206;-74
2022/10/27 07:07:26;;;;;;;4.97;4.47;;;10.60;99.90;;;;;;4994278;28;20401;-74
2022/10/27 07:09:52;;;;;;;5.97;5.43;;;10.80;99.90;;;;;;4993359;28;20280;-73
2022/10/27 07:12:18;;;;;;;5.10;4.60;;;11.00;99.90;;;;;;4993676;28;20218;-74
2022/10/27 07:14:43;;;;;;;7.30;6.10;;;11.20;99.90;;;;;;4993062;28;20251;-73
2022/10/27 07:17:09;;;;;;;9.17;7.07;;;11.40;99.90;;;;;;4993860;28;20185;-73
2022/10/27 07:19:34;;;;;;;9.27;6.37;;;11.60;99.90;;;;;;4993731;28;20212;-72
2022/10/27 07:22:00;;;;;;;5.30;4.73;;;11.70;99.90;;;;;;4993577;28;20180;-72
2022/10/27 07:24:25;;;;;;;6.57;5.90;;;11.70;99.90;;;;;;4993389;28;20196;-73
2022/10/27 07:26:51;;;;;;;8.67;5.87;;;11.90;99.90;;;;;;4992975;28;20189;-73
2022/10/27 07:29:17;;;;;;;9.30;6.50;;;12.00;99.90;;;;;;4993961;28;20264;-72
2022/10/27 07:31:44;;;;;;;6.53;6.03;;;12.10;99.90;;;;;;4978500;28;20266;-73
2022/10/27 07:34:10;;;;;;;7.43;6.50;;;12.20;99.90;;;;;;4974167;28;20217;-72
2022/10/27 07:36:35;;;;;;;9.00;5.90;;;12.30;99.90;;;;;;4990319;28;20429;-72
2022/10/27 07:39:01;;;;;;;16.47;9.57;;;12.50;99.90;;;;;;4993879;28;20202;-72
2022/10/27 07:41:26;;;;;;;12.70;9.40;;;13.00;99.90;;;;;;4993134;28;20194;-72
2022/10/27 07:43:52;;;;;;;18.03;11.77;;;14.00;99.90;;;;;;4987934;28;20211;-74
2022/10/27 07:46:18;;;;;;;12.63;9.33;;;15.00;99.90;;;;;;4994026;28;20177;-75
2022/10/27 07:48:43;;;;;;;7.73;6.93;;;16.10;99.90;;;;;;4992521;28;20234;-75
2022/10/27 07:51:09;;;;;;;4.70;4.30;;;17.40;99.90;;;;;;4994048;28;20214;-75
2022/10/27 07:53:34;;;;;;;4.40;4.00;;;18.20;99.90;;;;;;4991882;28;20199;-75
2022/10/27 07:56:01;;;;;;;6.50;4.70;;;18.50;99.90;;;;;;4993858;28;20209;-76
2022/10/27 07:58:27;;;;;;;6.10;4.03;;;19.00;99.90;;;;;;4994479;28;20183;-75
2022/10/27 08:01:02;;;;;;;5.20;3.60;;;19.60;99.90;;;;;;4993849;28;20877;-73
2022/10/27 08:03:30;;;;;;;3.97;3.60;;;20.00;99.90;;;;;;4993281;28;20172;-75
2022/10/27 08:06:02;;;;;;;5.73;3.23;;;20.60;99.90;;;;;;4993808;28;20509;-75
2022/10/27 08:08:28;;;;;;;3.23;3.03;;;21.30;99.90;;;;;;4993931;28;20463;-74
2022/10/27 08:10:54;;;;;;;3.60;3.30;;;21.90;99.90;;;;;;4993547;28;20745;-74
2022/10/27 08:13:19;;;;;;;3.83;3.23;;;22.60;99.90;;;;;;4992129;28;20414;-75
2022/10/27 08:15:46;;;;;;;4.00;3.70;;;23.30;99.90;;;;;;4993758;28;20207;-75
2022/10/27 08:18:12;;;;;;;3.40;3.20;;;23.80;99.90;;;;;;4993843;28;20250;-75
2022/10/27 08:20:40;;;;;;;4.80;4.30;;;24.30;99.90;;;;;;4992995;28;20716;-76
2022/10/27 08:23:17;;;;;;;4.80;4.40;;;24.70;99.90;;;;;;4993405;28;20438;-75
2022/10/27 08:25:43;;;;;;;4.40;4.00;;;25.10;98.90;;;;;;4992449;28;20827;-76
2022/10/27 08:28:13;;;;;;;6.80;4.57;;;25.50;98.50;;;;;;4993756;28;20910;-76
2022/10/27 08:30:40;;;;;;;4.57;4.17;;;26.00;96.00;;;;;;4993667;28;20429;-75
2022/10/27 08:33:07;;;;;;;5.23;4.70;;;26.20;95.50;;;;;;4993228;28;20382;-75
2022/10/27 08:35:33;;;;;;;5.70;5.10;;;26.30;95.20;;;;;;4993281;28;20531;-75
2022/10/27 08:38:04;;;;;;;4.87;4.47;;;26.50;94.10;;;;;;4993540;28;20410;-77
2022/10/27 08:40:50;;;;;;;2.77;2.57;;;26.70;94.20;;;;;;4993876;28;20407;-76
2022/10/27 08:43:58;;;;;;;4.00;3.60;;;27.00;94.10;;;;;;4993354;28;20935;-76
2022/10/27 08:46:45;;;;;;;4.47;3.30;;;27.50;92.40;;;;;;4992219;28;20426;-77
2022/10/27 08:49:28;;;;;;;4.97;3.10;;;28.00;91.00;;;;;;4993622;28;20758;-76
2022/10/27 08:52:02;;;;;;;3.20;2.90;;;28.20;90.70;;;;;;4993624;28;20378;-76
2022/10/27 08:54:28;;;;;;;4.30;3.07;;;28.40;89.80;;;;;;4993235;28;20423;-78
2022/10/27 08:56:57;;;;;;;3.67;3.37;;;28.60;89.60;;;;;;4993364;28;20397;-76
2022/10/27 08:59:24;;;;;;;5.00;3.10;;;28.70;89.30;;;;;;4993413;28;20476;-76
2022/10/27 09:02:19;;;;;;;3.30;3.00;;;28.90;89.60;;;;;;4993419;28;20386;-76
2022/10/27 09:04:55;;;;;;;3.87;2.90;;;28.90;87.60;;;;;;4991660;28;20458;-77
2022/10/27 09:07:33;;;;;;;3.33;3.03;;;29.10;87.10;;;;;;4993785;28;20779;-77
2022/10/27 09:10:01;;;;;;;3.10;2.90;;;29.20;87.20;;;;;;4993760;28;20429;-78
2022/10/27 09:12:52;;;;;;;4.03;3.20;;;29.30;87.00;;;;;;4993223;28;20378;-75
2022/10/27 09:15:35;;;;;;;4.00;3.60;;;29.30;85.80;;;;;;4993302;28;20969;-77
2022/10/27 09:18:13;;;;;;;4.40;3.03;;;29.40;84.40;;;;;;4993770;28;20410;-77
2022/10/27 09:20:56;;;;;;;3.80;2.73;;;29.50;84.40;;;;;;4993946;28;20886;-77
2022/10/27 09:23:28;;;;;;;3.40;3.10;;;29.60;84.40;;;;;;4993267;28;20385;-78
2022/10/27 09:25:57;;;;;;;3.10;2.90;;;29.70;83.70;;;;;;4993388;28;20407;-78
2022/10/27 09:28:40;;;;;;;5.40;3.03;;;29.70;82.50;;;;;;4993160;28;20477;-78
2022/10/27 09:31:14;;;;;;;4.33;2.80;;;29.70;81.80;;;;;;4994114;28;20403;-77
2022/10/27 09:34:03;;;;;;;3.70;2.53;;;29.80;81.80;;;;;;4996599;28;20430;-77
2022/10/27 09:36:28;;;;;;;7.53;3.10;;;29.70;82.80;;;;;;4981830;28;20498;-79
2022/10/27 09:38:54;;;;;;;2.80;2.60;;;29.70;82.90;;;;;;4977377;28;20443;-79
2022/10/27 09:41:20;;;;;;;3.90;2.77;;;29.80;82.00;;;;;;4977123;28;20180;-79
2022/10/27 09:43:49;;;;;;;2.60;2.40;;;30.00;81.50;;;;;;4975271;28;20220;-78
2022/10/27 09:46:23;;;;;;;3.40;3.10;;;30.20;80.60;;;;;;4976945;28;20230;-78
2022/10/27 09:48:53;;;;;;;6.37;2.50;;;30.20;80.00;;;;;;4977217;28;20419;-79
2022/10/27 09:51:22;;;;;;;6.70;3.10;;;30.10;80.40;;;;;;4976966;28;20478;-79
2022/10/27 09:53:51;;;;;;;3.63;2.83;;;29.80;80.40;;;;;;4976344;28;20411;-78
2022/10/27 09:56:29;;;;;;;6.60;3.07;;;29.80;82.00;;;;;;4976759;28;20426;-77
2022/10/27 09:58:59;;;;;;;3.80;2.73;;;29.90;80.70;;;;;;4976872;28;20446;-79
2022/10/27 10:01:48;;;;;;;3.10;2.90;;;30.00;80.80;;;;;;4975451;28;20460;-78
2022/10/27 10:04:30;;;;;;;3.17;2.87;;;29.60;81.70;;;;;;4976248;28;20839;-78
2022/10/27 10:07:02;;;;;;;3.50;2.70;;;29.40;83.20;;;;;;4976643;28;20427;-77
2022/10/27 10:09:33;;;;;;;2.83;2.60;;;29.30;83.10;;;;;;4976651;28;20429;-77
2022/10/27 10:12:16;;;;;;;5.47;3.20;;;29.30;83.30;;;;;;4975240;28;20394;-78
2022/10/27 10:14:42;;;;;;;5.00;2.83;;;29.30;83.60;;;;;;4975965;28;20509;-78
2022/10/27 10:17:26;;;;;;;3.00;2.80;;;29.10;84.50;;;;;;4976635;28;20465;-78
2022/10/27 10:19:54;;;;;;;2.83;2.63;;;29.00;84.50;;;;;;4976475;28;20191;-76
2022/10/27 10:22:29;;;;;;;3.57;2.57;;;29.20;84.00;;;;;;4976718;28;20467;-76
2022/10/27 10:24:59;;;;;;;3.50;2.50;;;29.10;84.40;;;;;;4976063;28;20550;-77
2022/10/27 10:27:29;;;;;;;3.43;2.63;;;29.20;84.40;;;;;;4976246;28;20471;-78
2022/10/27 10:29:56;;;;;;;2.57;2.37;;;29.30;83.60;;;;;;4976122;28;20398;-77
2022/10/27 10:32:25;;;;;;;3.33;2.50;;;29.40;83.70;;;;;;4974829;28;20408;-76
2022/10/27 10:34:52;;;;;;;2.47;2.27;;;29.30;83.30;;;;;;4983615;28;20444;-76
2022/10/27 10:37:35;;;;;;;5.63;3.00;;;29.00;83.70;;;;;;4995589;28;20465;-76
2022/10/27 10:40:24;;;;;;;4.00;3.23;;;28.90;83.90;;;;;;4995643;28;20385;-78
2022/10/27 10:43:18;;;;;;;3.70;2.67;;;28.90;85.30;;;;;;4994340;28;20381;-76
2022/10/27 10:45:51;;;;;;;3.40;2.77;;;28.80;86.30;;;;;;4994874;28;20940;-77
2022/10/27 10:48:26;;;;;;;3.90;3.20;;;28.50;85.30;;;;;;4995239;28;20374;-76
2022/10/27 10:50:54;;;;;;;3.80;2.00;;;28.20;85.70;;;;;;4995265;28;20585;-77
2022/10/27 10:53:30;;;;;;;2.30;2.03;;;28.00;86.40;;;;;;4994615;28;20389;-76
2022/10/27 10:55:58;;;;;;;4.20;2.57;;;27.80;87.40;;;;;;4993964;28;20439;-75
2022/10/27 10:58:25;;;;;;;4.97;2.40;;;27.50;87.40;;;;;;4993713;28;20904;-77
2022/10/27 11:01:04;;;;;;;2.87;2.67;;;27.10;88.40;;;;;;4994930;28;20411;-75
2022/10/27 11:03:38;;;;;;;3.23;2.57;;;26.50;90.00;;;;;;4993314;28;20760;-75
2022/10/27 11:06:12;;;;;;;2.73;2.30;;;25.90;91.00;;;;;;4994995;28;20462;-76
2022/10/27 11:08:41;;;;;;;2.67;2.23;;;25.10;91.80;;;;;;4994720;28;20387;-78
2022/10/27 11:11:21;;;;;;;2.37;1.93;;;24.70;92.40;;;;;;4994758;28;20435;-77
2022/10/27 11:13:54;;;;;;;5.47;2.60;;;24.30;93.00;;;;;;4992955;28;20456;-75
2022/10/27 11:16:20;;;;;;;5.93;2.83;;;24.00;93.90;;;;;;4993508;28;20543;-75
2022/10/27 11:18:48;;;;;;;3.10;1.90;;;23.70;93.90;;;;;;4994512;28;20418;-75
2022/10/27 11:21:40;;;;;;;5.03;2.27;;;23.60;93.90;;;;;;4993225;28;20442;-73
2022/10/27 11:24:54;;;;;;;3.80;2.17;;;23.40;92.70;;;;;;4994040;28;20442;-78
2022/10/27 11:27:28;;;;;;;2.80;2.60;;;23.20;93.30;;;;;;4985316;28;20423;-75
2022/10/27 11:30:21;;;;;;;2.17;2.00;;;23.10;92.90;;;;;;4994314;28;20503;-75
2022/10/27 11:33:03;;;;;;;2.50;1.80;;;22.90;93.40;;;;;;4994385;28;20396;-75
2022/10/27 11:36:15;;;;;;;1.93;1.83;;;22.80;93.80;;;;;;4994326;28;20466;-77
2022/10/27 11:38:58;;;;;;;3.07;1.60;;;22.80;94.10;;;;;;4994414;28;20829;-76
2022/10/27 11:41:46;;;;;;;2.60;1.73;;;22.80;93.60;;;;;;4994415;28;20511;-75
2022/10/27 11:44:33;;;;;;;2.40;2.20;;;22.70;94.00;;;;;;4992344;28;20448;-76
2022/10/27 11:47:38;;;;;;;2.37;2.17;;;22.60;94.70;;;;;;4993740;28;20423;-76
2022/10/27 11:50:13;;;;;;;3.23;1.73;;;22.60;95.00;;;;;;4992766;28;20395;-76
2022/10/27 11:52:47;;;;;;;3.03;1.83;;;22.60;93.60;;;;;;4993330;28;20434;-75
2022/10/27 11:55:19;;;;;;;2.43;1.90;;;22.60;94.00;;;;;;4993742;28;20462;-75
2022/10/27 11:58:04;;;;;;;2.50;1.70;;;22.70;94.50;;;;;;4993840;28;20508;-77
2022/10/27 12:00:43;;;;;;;4.97;2.00;;;22.70;94.40;;;;;;4992819;28;20456;-75
2022/10/27 12:03:30;;;;;;;1.73;1.63;;;22.80;93.90;;;;;;4992948;28;20434;-77
2022/10/27 12:06:07;;;;;;;1.87;1.63;;;22.80;94.20;;;;;;4992942;28;20444;-77
2022/10/27 12:08:54;;;;;;;2.77;2.13;;;22.80;94.50;;;;;;4992320;28;20533;-74
2022/10/27 12:11:43;;;;;;;3.83;1.70;;;22.80;94.60;;;;;;4992387;28;20407;-74
2022/10/27 12:15:00;;;;;;;2.00;1.90;;;22.80;94.30;;;;;;4992892;28;20436;-76
2022/10/27 12:18:07;;;;;;;2.73;1.70;;;22.90;94.10;;;;;;4952751;29;20432;-74
2022/10/27 12:21:00;;;;;;;2.00;1.90;;;23.00;94.00;;;;;;4989716;28;20506;-76
2022/10/27 12:23:30;;;;;;;2.33;1.77;;;23.00;94.40;;;;;;4984063;28;20422;-78
2022/10/27 12:26:20;;;;;;;2.57;1.70;;;23.10;94.30;;;;;;4993531;28;20545;-78
2022/10/27 12:28:46;;;;;;;2.23;2.13;;;23.10;94.30;;;;;;4974284;28;20408;-74
2022/10/27 12:31:19;;;;;;;2.80;2.43;;;23.20;94.30;;;;;;4975695;28;20420;-74
2022/10/27 12:34:02;;;;;;;1.80;1.70;;;23.20;94.10;;;;;;4992859;28;20559;-76
2022/10/27 12:36:39;;;;;;;2.10;1.67;;;23.20;93.90;;;;;;4990805;28;20464;-68
2022/10/27 12:39:17;;;;;;;2.50;1.83;;;23.30;93.40;;;;;;4992886;28;20433;-70
2022/10/27 12:42:20;;;;;;;2.93;2.60;;;23.30;92.80;;;;;;4992684;28;20422;-69
2022/10/27 12:44:58;;;;;;;4.13;1.93;;;23.40;93.10;;;;;;4976272;28;20454;-73
2022/10/27 12:47:57;;;;;;;3.13;1.77;;;23.50;91.70;;;;;;4992649;28;20629;-68
2022/10/27 12:50:36;;;;;;;3.10;1.80;;;23.60;91.00;;;;;;4992693;28;20405;-73
2022/10/27 12:53:39;;;;;;;4.50;1.93;;;23.50;91.50;;;;;;4993264;28;20766;-74
2022/10/27 12:56:44;;;;;;;3.30;2.13;;;23.60;91.90;;;;;;4992983;28;20459;-74
2022/10/27 12:59:25;;;;;;;1.53;1.37;;;23.60;91.30;;;;;;4944259;28;20452;-74
2022/10/27 13:02:00;;;;;;;2.27;2.10;;;23.70;90.50;;;;;;4992201;28;20775;-74
2022/10/27 13:04:46;;;;;;;2.30;2.03;;;23.70;91.00;;;;;;4992226;28;20473;-75
2022/10/27 13:07:45;;;;;;;2.27;1.40;;;23.70;91.20;;;;;;4995871;28;20396;-74
2022/10/27 13:10:29;;;;;;;1.60;1.50;;;23.80;90.20;;;;;;4996730;28;20415;-75
2022/10/27 13:13:00;;;;;;;1.80;1.70;;;23.90;89.40;;;;;;4996706;28;20402;-75
2022/10/27 13:15:35;;;;;;;2.63;2.07;;;23.90;90.10;;;;;;4996951;28;20462;-74
2022/10/27 13:18:42;;;;;;;2.07;1.60;;;23.90;90.50;;;;;;4996614;28;20400;-73
2022/10/27 13:21:30;;;;;;;2.50;1.77;;;23.90;90.50;;;;;;4985848;28;20434;-74
2022/10/27 13:24:06;;;;;;;3.60;3.30;;;24.00;90.40;;;;;;4996333;28;20448;-75
2022/10/27 13:26:46;;;;;;;1.90;1.50;;;23.90;90.50;;;;;;4995765;28;20458;-76
2022/10/27 13:29:29;;;;;;;3.03;2.73;;;24.00;90.50;;;;;;4996645;28;20848;-76
2022/10/27 13:32:24;;;;;;;2.57;1.90;;;24.00;91.20;;;;;;4996490;28;20862;-75
2022/10/27 13:34:59;;;;;;;2.67;2.00;;;24.00;91.30;;;;;;4994557;28;20523;-76
2022/10/27 13:37:40;;;;;;;2.30;1.90;;;24.00;91.20;;;;;;4995591;28;20406;-75
2022/10/27 13:40:21;;;;;;;2.37;1.60;;;24.00;90.90;;;;;;4994854;28;20948;-74
2022/10/27 13:46:47;;;;;;;5.30;3.70;;;24.00;91.80;;;;;;4996216;28;20425;-81
2022/10/27 13:49:40;;;;;;;2.43;2.23;;;24.00;91.30;;;;;;4996489;28;20388;-74
2022/10/27 13:52:11;;;;;;;2.80;2.20;;;23.90;91.40;;;;;;4995479;28;20415;-73
2022/10/27 13:54:54;;;;;;;1.83;1.63;;;23.90;91.50;;;;;;4995611;28;20453;-73
2022/10/27 13:58:03;;;;;;;2.50;1.80;;;23.90;90.60;;;;;;4995477;28;20561;-75
2022/10/27 14:01:03;;;;;;;1.80;1.50;;;24.00;90.10;;;;;;4982612;28;20435;-74
2022/10/27 14:03:46;;;;;;;5.30;3.00;;;24.00;90.60;;;;;;4976365;28;20745;-75
2022/10/27 14:06:14;;;;;;;2.33;2.13;;;23.90;90.90;;;;;;4986552;28;20441;-74
2022/10/27 14:08:43;;;;;;;6.63;1.83;;;23.90;91.10;;;;;;4996042;28;20513;-74
2022/10/27 14:11:14;;;;;;;3.17;1.80;;;23.90;91.20;;;;;;4995317;28;20429;-74
2022/10/27 14:13:41;;;;;;;2.53;2.10;;;23.90;91.30;;;;;;4995454;28;22337;-75
2022/10/27 14:16:14;;;;;;;2.43;1.20;;;23.90;91.40;;;;;;4995215;28;20966;-73
2022/10/27 14:18:39;;;;;;;1.63;1.53;;;23.90;91.30;;;;;;4994697;28;20794;-73
2022/10/27 14:21:18;;;;;;;4.10;2.10;;;23.90;91.40;;;;;;4995543;28;20424;-74
2022/10/27 14:23:44;;;;;;;2.10;2.00;;;23.90;91.50;;;;;;4995430;28;20198;-74
2022/10/27 14:26:35;;;;;;;3.23;2.40;;;23.80;91.70;;;;;;4995132;28;20838;-73
2022/10/27 14:29:02;;;;;;;4.33;2.53;;;23.80;91.90;;;;;;4995835;28;20524;-74
2022/10/27 14:31:32;;;;;;;6.23;2.90;;;23.80;91.90;;;;;;4994360;28;20430;-74
2022/10/27 14:34:15;;;;;;;3.60;2.97;;;23.70;92.00;;;;;;4994684;28;20453;-74
2022/10/27 14:36:41;;;;;;;2.40;2.10;;;23.60;92.10;;;;;;4995242;28;20816;-74
2022/10/27 14:39:06;;;;;;;2.67;2.10;;;23.60;92.20;;;;;;4996936;28;20517;-74
2022/10/27 14:41:35;;;;;;;4.57;2.30;;;23.60;92.50;;;;;;4995325;28;20254;-74
2022/10/27 14:44:05;;;;;;;2.43;2.23;;;23.50;92.60;;;;;;4993451;28;20207;-73
2022/10/27 14:46:47;;;;;;;2.30;2.10;;;23.50;92.60;;;;;;4993503;28;20488;-74
2022/10/27 14:49:29;;;;;;;2.17;1.53;;;23.50;92.70;;;;;;4994788;28;20522;-75
2022/10/27 14:51:58;;;;;;;6.90;5.37;;;23.50;92.90;;;;;;4975941;28;20824;-75
2022/10/27 14:54:25;;;;;;;2.90;2.57;;;23.40;93.00;;;;;;4984750;28;20530;-74
2022/10/27 14:56:51;;;;;;;3.83;2.07;;;23.40;93.30;;;;;;4995098;28;20398;-74
2022/10/27 14:59:23;;;;;;;1.40;1.33;;;23.40;93.70;;;;;;4994810;28;20427;-73
2022/10/27 15:01:49;;;;;;;1.37;1.27;;;23.30;93.80;;;;;;4994745;28;20186;-74
2022/10/27 15:04:35;;;;;;;2.33;2.03;;;23.30;94.00;;;;;;4994388;28;20454;-74
2022/10/27 15:07:01;;;;;;;1.73;1.40;;;23.30;94.10;;;;;;4994122;28;20431;-70
2022/10/27 15:09:31;;;;;;;1.47;1.30;;;23.20;94.20;;;;;;4994146;28;20545;-71
2022/10/27 15:12:00;;;;;;;1.70;1.40;;;23.20;94.40;;;;;;4994319;28;20402;-70
2022/10/27 15:14:28;;;;;;;4.20;1.30;;;23.20;94.40;;;;;;4983606;28;20418;-70
2022/10/27 15:16:54;;;;;;;2.77;2.03;;;23.00;94.40;;;;;;4994998;28;20490;-70
2022/10/27 15:19:21;;;;;;;3.70;1.77;;;23.00;94.60;;;;;;4994825;28;20495;-69
2022/10/27 15:21:48;;;;;;;1.83;1.40;;;22.90;94.80;;;;;;4994726;28;20802;-68
2022/10/27 15:24:24;;;;;;;3.07;1.73;;;22.90;95.30;;;;;;4992900;28;20794;-70
2022/10/27 15:26:53;;;;;;;4.13;2.10;;;22.80;95.90;;;;;;4994622;28;20395;-72
2022/10/27 15:29:20;;;;;;;2.37;2.13;;;22.60;96.80;;;;;;4994193;28;20437;-70
2022/10/27 15:31:46;;;;;;;3.07;1.77;;;22.50;97.40;;;;;;4994091;28;20950;-70
2022/10/27 15:34:33;;;;;;;6.77;2.13;;;22.40;97.60;;;;;;4994131;28;20415;-72
2022/10/27 15:37:13;;;;;;;1.70;1.60;;;22.30;97.60;;;;;;4994528;28;20389;-70
2022/10/27 15:39:40;;;;;;;1.90;1.80;;;22.20;98.00;;;;;;4994005;28;20497;-71
2022/10/27 15:42:21;;;;;;;3.90;1.90;;;22.00;98.20;;;;;;4994348;28;20416;-69
2022/10/27 15:44:48;;;;;;;3.83;2.37;;;22.00;98.40;;;;;;4993802;28;20452;-69
2022/10/27 15:47:37;;;;;;;2.90;2.20;;;21.80;98.80;;;;;;4985158;28;20555;-70
2022/10/27 15:50:04;;;;;;;2.80;2.60;;;21.70;99.30;;;;;;4993740;28;20930;-69
2022/10/27 15:52:29;;;;;;;5.20;2.50;;;21.60;99.30;;;;;;4993376;28;20775;-69
2022/10/27 15:54:55;;;;;;;7.83;5.87;;;21.40;99.50;;;;;;4992508;28;20469;-68
2022/10/27 15:57:39;;;;;;;8.30;5.70;;;21.30;99.90;;;;;;4994201;28;20639;-68
2022/10/27 16:00:19;;;;;;;4.53;3.60;;;21.20;99.90;;;;;;4993766;28;20441;-72
2022/10/27 16:03:01;;;;;;;4.03;3.27;;;21.00;99.90;;;;;;4991387;28;20423;-66
2022/10/27 16:05:29;;;;;;;2.60;2.23;;;20.90;99.90;;;;;;4986625;28;20462;-63
2022/10/27 16:08:13;;;;;;;2.27;2.10;;;20.80;99.90;;;;;;4992974;28;20459;-65
2022/10/27 16:10:39;;;;;;;2.90;2.50;;;20.70;99.90;;;;;;4992671;28;20413;-63
2022/10/27 16:13:05;;;;;;;4.47;3.40;;;20.70;99.90;;;;;;4992440;28;20179;-64
2022/10/27 16:15:31;;;;;;;3.43;2.33;;;20.60;99.90;;;;;;4991642;28;20211;-64
2022/10/27 16:17:59;;;;;;;5.83;2.90;;;20.60;99.90;;;;;;4992553;28;20389;-68
2022/10/27 16:20:33;;;;;;;4.90;3.13;;;20.50;99.90;;;;;;4993983;28;20175;-65
2022/10/27 16:22:59;;;;;;;3.23;2.03;;;20.40;99.90;;;;;;4982176;28;20423;-64
2022/10/27 16:25:31;;;;;;;2.67;2.23;;;20.40;99.90;;;;;;4993345;28;20512;-64
2022/10/27 16:28:02;;;;;;;5.50;2.27;;;20.40;99.90;;;;;;4993427;28;20949;-70
2022/10/27 16:30:28;;;;;;;3.03;2.70;;;20.30;99.90;;;;;;4993096;28;20732;-69
2022/10/27 16:33:02;;;;;;;3.27;2.60;;;20.20;99.90;;;;;;4991703;28;20427;-76
2022/10/27 16:35:30;;;;;;;3.83;2.37;;;20.10;99.90;;;;;;4993039;28;20465;-73
2022/10/27 16:37:56;;;;;;;3.10;2.77;;;20.00;99.90;;;;;;4991730;28;20422;-70
2022/10/27 16:40:22;;;;;;;3.67;2.90;;;19.90;99.90;;;;;;4993035;28;20415;-70
2022/10/27 16:42:52;;;;;;;4.03;2.40;;;19.80;99.90;;;;;;4996738;28;20900;-73
2022/10/27 16:45:19;;;;;;;5.10;3.33;;;19.60;99.90;;;;;;4996847;28;20810;-71
2022/10/27 16:47:47;;;;;;;3.40;3.10;;;19.50;99.90;;;;;;4995242;28;20465;-72
2022/10/27 16:50:13;;;;;;;7.90;3.00;;;19.40;99.90;;;;;;4996523;28;20409;-71
2022/10/27 16:52:39;;;;;;;6.07;2.40;;;19.30;99.90;;;;;;4996444;28;20501;-76
2022/10/27 16:55:08;;;;;;;3.90;2.47;;;19.20;99.90;;;;;;4996797;28;20214;-67
2022/10/27 16:57:43;;;;;;;5.30;2.43;;;19.00;99.90;;;;;;4996221;28;20174;-73
2022/10/27 17:00:11;;;;;;;3.73;2.10;;;18.90;99.90;;;;;;4996649;28;20426;-78
2022/10/27 17:02:37;;;;;;;3.70;2.60;;;18.80;99.90;;;;;;4995565;28;20775;-76
2022/10/27 17:05:03;;;;;;;4.33;2.33;;;18.70;99.90;;;;;;4996314;28;20966;-70
2022/10/27 17:07:29;;;;;;;2.63;2.00;;;18.60;99.90;;;;;;4996176;28;20438;-76
2022/10/27 17:09:54;;;;;;;4.43;3.03;;;18.50;99.90;;;;;;4995610;28;20480;-71
2022/10/27 17:12:20;;;;;;;3.30;2.60;;;18.50;99.90;;;;;;4996191;28;20535;-72
2022/10/27 17:14:46;;;;;;;3.00;2.37;;;18.40;99.90;;;;;;4996211;28;20210;-71
2022/10/27 17:17:12;;;;;;;3.37;2.80;;;18.40;99.90;;;;;;4997012;28;20385;-74
2022/10/27 17:19:38;;;;;;;4.30;3.23;;;18.40;99.90;;;;;;4996624;28;20182;-73
2022/10/27 17:22:03;;;;;;;7.90;2.87;;;18.30;99.90;;;;;;4996718;28;20447;-72
2022/10/27 17:24:29;;;;;;;2.90;2.40;;;18.30;99.90;;;;;;4995653;28;20445;-71